Time;durP1;ratioP1;P1;durP2;ratioP2;P2;SDS_P1;SDS_P2;PMS_P1;PMS_P2;Temp;Humidity;BMP_temperature;BMP_pressure;BME280_temperature;BME280_humidity;BME280_pressure;Samples;Min_cycle;Max_cycle;Signal;HPM_P1;HPM_P2
2023/04/20 00:06:42;;;;;;;10.68;7.93;;;6.00;99.90;;;;;;20739342;28;20046;-51
2023/04/20 00:16:44;;;;;;;10.55;6.85;;;6.00;99.90;;;;;;20743892;28;20042;-50
2023/04/20 00:26:46;;;;;;;10.10;6.30;;;5.80;99.90;;;;;;20755199;28;20046;-49
2023/04/20 00:36:47;;;;;;;9.27;6.22;;;5.70;99.90;;;;;;20754316;28;20030;-48
2023/04/20 00:46:52;;;;;;;9.38;6.38;;;5.70;99.90;;;;;;20752834;28;20025;-47
2023/04/20 00:56:56;;;;;;;9.45;6.50;;;5.60;99.90;;;;;;20751866;28;20517;-52
2023/04/20 01:06:58;;;;;;;7.35;5.50;;;5.50;99.90;;;;;;20751550;28;20100;-49
2023/04/20 01:16:59;;;;;;;11.45;7.43;;;5.50;99.90;;;;;;20750999;28;20045;-48
2023/04/20 01:27:01;;;;;;;46.60;9.05;;;5.50;99.90;;;;;;20685136;28;20105;-47
2023/04/20 01:37:07;;;;;;;10.32;7.05;;;5.50;99.90;;;;;;20737611;28;20046;-47
2023/04/20 01:47:08;;;;;;;10.23;6.90;;;5.40;99.90;;;;;;20747613;28;20548;-48
2023/04/20 01:57:10;;;;;;;10.63;7.75;;;5.40;99.90;;;;;;20748481;28;20037;-48
2023/04/20 02:07:11;;;;;;;10.80;7.85;;;5.30;99.90;;;;;;20747329;28;20057;-48
2023/04/20 02:17:13;;;;;;;9.52;6.00;;;5.20;99.90;;;;;;20745055;28;20041;-50
2023/04/20 02:27:15;;;;;;;8.02;3.10;;;5.20;99.90;;;;;;20745960;28;20037;-50
2023/04/20 02:37:16;;;;;;;3.15;1.85;;;4.80;99.90;;;;;;20744285;28;20037;-51
2023/04/20 02:47:18;;;;;;;1.45;1.08;;;4.50;99.90;;;;;;20745673;28;20064;-50
2023/04/20 02:57:21;;;;;;;2.25;1.63;;;4.10;99.90;;;;;;20742524;28;20041;-49
2023/04/20 03:07:22;;;;;;;2.28;1.38;;;4.00;99.90;;;;;;20741345;28;20041;-49
2023/04/20 03:17:24;;;;;;;0.93;0.73;;;4.00;99.90;;;;;;20741132;28;20042;-49
2023/04/20 03:27:26;;;;;;;1.17;0.45;;;3.90;99.90;;;;;;20675714;28;20460;-50
2023/04/20 03:37:39;;;;;;;0.40;0.22;;;3.70;99.90;;;;;;20733999;28;20034;-62
2023/04/20 03:47:42;;;;;;;1.00;0.40;;;3.50;99.90;;;;;;20740518;28;20096;-47
2023/04/20 03:57:44;;;;;;;0.63;0.40;;;3.20;99.90;;;;;;20740168;28;20116;-49
2023/04/20 04:07:46;;;;;;;0.30;0.30;;;3.10;99.90;;;;;;20737979;28;20049;-47
2023/04/20 04:17:48;;;;;;;1.13;0.40;;;3.00;99.90;;;;;;20738074;28;20041;-48
2023/04/20 04:27:50;;;;;;;0.93;0.30;;;2.90;99.90;;;;;;20738897;28;20411;-50
2023/04/20 04:37:52;;;;;;;0.85;0.35;;;2.80;99.90;;;;;;20737105;28;20038;-62
2023/04/20 04:47:55;;;;;;;0.43;0.20;;;2.80;99.90;;;;;;20736961;28;20369;-45
2023/04/20 04:57:58;;;;;;;0.73;0.40;;;3.00;99.90;;;;;;20720497;28;20088;-50
2023/04/20 05:08:00;;;;;;;0.20;0.10;;;3.20;99.90;;;;;;20748791;28;20034;-51
2023/04/20 05:18:01;;;;;;;1.45;0.50;;;3.30;99.90;;;;;;20751730;28;20061;-62
2023/04/20 05:28:03;;;;;;;1.02;0.50;;;3.50;99.90;;;;;;20750625;28;20439;-62
2023/04/20 05:38:05;;;;;;;1.25;0.60;;;3.60;99.90;;;;;;20750938;28;20033;-62
2023/04/20 05:48:07;;;;;;;0.20;0.20;;;3.70;99.90;;;;;;20749259;28;20446;-45
2023/04/20 05:58:10;;;;;;;0.95;0.30;;;3.80;99.90;;;;;;20749365;28;20056;-62
2023/04/20 06:08:12;;;;;;;1.10;0.10;;;3.90;99.90;;;;;;20744609;28;20431;-62
2023/04/20 06:18:13;;;;;;;0.28;0.15;;;4.00;99.90;;;;;;20745931;28;20384;-51
2023/04/20 06:28:15;;;;;;;0.17;0.10;;;4.00;99.90;;;;;;20746297;28;20050;-52
2023/04/20 06:38:16;;;;;;;1.20;0.70;;;4.10;99.90;;;;;;20743053;28;20064;-61
2023/04/20 06:48:18;;;;;;;0.50;0.40;;;4.20;99.90;;;;;;20746135;28;20045;-50
2023/04/20 06:58:20;;;;;;;0.80;0.50;;;4.30;99.90;;;;;;20743852;28;20038;-50
2023/04/20 07:08:21;;;;;;;0.80;0.57;;;4.50;99.90;;;;;;20742964;28;20038;-47
2023/04/20 07:18:23;;;;;;;0.70;0.50;;;4.60;99.90;;;;;;20742220;28;20076;-50
2023/04/20 07:28:24;;;;;;;1.50;1.05;;;4.80;99.90;;;;;;20741782;28;20443;-49
2023/04/20 07:38:26;;;;;;;1.48;1.02;;;5.20;99.90;;;;;;20721973;28;20042;-61
2023/04/20 07:48:28;;;;;;;2.30;1.60;;;5.50;99.90;;;;;;20740509;28;20406;-47
2023/04/20 07:58:29;;;;;;;2.50;1.80;;;5.60;99.90;;;;;;20739237;28;20038;-48
2023/04/20 08:08:31;;;;;;;2.55;1.58;;;5.80;99.90;;;;;;20739654;28;20092;-49
2023/04/20 08:18:32;;;;;;;2.33;1.58;;;5.70;99.90;;;;;;20739383;28;20057;-50
2023/04/20 08:28:34;;;;;;;1.92;1.50;;;5.70;99.90;;;;;;20658940;28;20468;-50
2023/04/20 08:38:35;;;;;;;2.45;1.80;;;5.80;99.90;;;;;;20744561;28;20058;-51
2023/04/20 08:48:40;;;;;;;2.45;1.77;;;5.60;99.90;;;;;;20753674;28;20415;-50
2023/04/20 08:58:42;;;;;;;2.65;1.77;;;5.80;99.90;;;;;;20752881;28;20045;-51
2023/04/20 09:08:45;;;;;;;2.30;1.80;;;6.00;99.90;;;;;;20748987;28;20084;-48
2023/04/20 09:18:56;;;;;;;2.35;1.67;;;6.50;99.90;;;;;;20751071;28;20054;-51
2023/04/20 09:28:58;;;;;;;3.03;1.90;;;6.80;99.90;;;;;;20751768;28;20037;-59
2023/04/20 09:39:02;;;;;;;2.63;2.00;;;7.10;99.90;;;;;;20750410;28;20034;-50
2023/04/20 09:49:07;;;;;;;3.30;2.45;;;7.20;99.90;;;;;;20749519;28;20038;-51
2023/04/20 09:59:09;;;;;;;3.53;2.83;;;7.20;99.90;;;;;;20744448;28;20076;-49
2023/04/20 10:09:24;;;;;;;3.75;2.83;;;6.90;99.90;;;;;;20744092;28;20029;-48
2023/04/20 10:19:40;;;;;;;3.92;3.03;;;6.60;99.90;;;;;;20747198;28;20084;-58
2023/04/20 10:29:42;;;;;;;4.43;3.10;;;6.40;99.90;;;;;;20745621;28;20033;-49
2023/04/20 10:39:47;;;;;;;5.93;3.28;;;6.30;99.90;;;;;;20746327;28;20076;-51
2023/04/20 10:49:49;;;;;;;5.82;3.85;;;6.20;99.90;;;;;;20746173;28;20030;-50
2023/04/20 10:59:50;;;;;;;7.20;4.82;;;6.10;99.90;;;;;;20743180;28;20042;-47
2023/04/20 11:09:56;;;;;;;302.83;15.18;;;5.90;99.90;;;;;;20744280;28;20061;-48
2023/04/20 11:20:10;;;;;;;6.90;5.00;;;5.80;99.90;;;;;;20741903;28;20053;-62
2023/04/20 11:30:13;;;;;;;6.60;4.90;;;5.70;99.90;;;;;;20741694;28;20030;-49
2023/04/20 11:40:14;;;;;;;63.38;7.05;;;5.70;99.90;;;;;;20742091;28;20034;-49
2023/04/20 11:50:16;;;;;;;2.85;1.80;;;5.60;99.90;;;;;;20740654;28;20457;-62
2023/04/20 12:00:18;;;;;;;0.70;0.40;;;5.30;99.90;;;;;;20739999;28;20034;-47
2023/04/20 12:10:22;;;;;;;1.88;0.40;;;4.60;99.90;;;;;;20782971;28;20053;-49
2023/04/20 12:20:24;;;;;;;0.57;0.32;;;4.60;99.90;;;;;;20754512;28;20100;-52
2023/04/20 12:30:25;;;;;;;0.47;0.30;;;5.10;99.90;;;;;;20755101;28;20033;-48
2023/04/20 12:40:27;;;;;;;0.38;0.30;;;6.10;99.90;;;;;;20754808;28;20056;-52
2023/04/20 12:50:29;;;;;;;1.48;0.95;;;6.50;99.90;;;;;;20753730;28;20030;-51
2023/04/20 13:00:30;;;;;;;1.80;1.27;;;6.20;99.90;;;;;;20753901;28;20033;-50
2023/04/20 13:10:32;;;;;;;2.72;1.85;;;6.20;99.90;;;;;;20750309;28;20458;-47
2023/04/20 13:20:34;;;;;;;2.53;1.50;;;6.20;99.90;;;;;;20751094;28;20108;-50
2023/04/20 13:30:36;;;;;;;1.70;1.38;;;6.00;99.90;;;;;;20749847;28;20034;-48
2023/04/20 13:40:38;;;;;;;1.42;0.82;;;6.00;99.90;;;;;;20750032;28;20042;-50
2023/04/20 13:50:40;;;;;;;0.93;0.68;;;5.80;99.90;;;;;;20749058;28;20029;-47
2023/04/20 14:00:41;;;;;;;0.95;0.77;;;5.90;99.90;;;;;;20748725;28;20026;-50
2023/04/20 14:10:43;;;;;;;2.33;1.70;;;6.30;99.90;;;;;;20745600;28;20026;-47
2023/04/20 14:20:45;;;;;;;2.88;2.17;;;6.80;99.90;;;;;;20746693;28;20149;-59
2023/04/20 14:30:46;;;;;;;1.00;0.80;;;7.30;99.90;;;;;;20745977;28;20033;-49
2023/04/20 14:40:49;;;;;;;1.40;1.05;;;7.30;99.90;;;;;;20744727;28;20046;-60
2023/04/20 14:50:52;;;;;;;3.63;2.50;;;7.20;99.90;;;;;;20745056;28;20042;-50
2023/04/20 15:00:54;;;;;;;3.38;2.60;;;7.10;99.90;;;;;;20743667;28;20038;-51
2023/04/20 15:10:55;;;;;;;2.30;2.00;;;6.80;99.90;;;;;;20743122;28;20037;-59
2023/04/20 15:20:57;;;;;;;3.10;2.40;;;6.60;99.90;;;;;;20742039;28;20108;-58
2023/04/20 15:30:58;;;;;;;3.13;2.13;;;6.60;99.90;;;;;;20741085;28;20034;-51
2023/04/20 15:41:00;;;;;;;2.70;2.20;;;6.50;99.90;;;;;;20741154;28;20084;-48
2023/04/20 15:51:02;;;;;;;3.90;2.58;;;6.50;99.90;;;;;;20738943;28;20053;-52
2023/04/20 16:01:04;;;;;;;3.38;2.35;;;6.30;99.90;;;;;;20739745;28;20572;-51
2023/04/20 16:11:06;;;;;;;2.78;1.90;;;6.30;99.90;;;;;;20736357;28;20053;-50
2023/04/20 16:21:09;;;;;;;5.18;3.38;;;6.30;99.90;;;;;;20738779;28;20565;-51
2023/04/20 16:31:11;;;;;;;4.85;3.20;;;6.20;99.90;;;;;;20743568;28;20029;-50
2023/04/20 16:41:16;;;;;;;5.82;3.53;;;6.00;99.90;;;;;;20776723;28;20092;-46
2023/04/20 16:51:18;;;;;;;5.82;3.90;;;5.70;99.90;;;;;;20737839;28;20038;-50
2023/04/20 17:01:20;;;;;;;4.85;3.72;;;5.50;99.90;;;;;;20746005;28;20030;-49
2023/04/20 17:11:22;;;;;;;6.28;4.30;;;5.40;99.90;;;;;;20752447;28;20034;-46
2023/04/20 17:21:27;;;;;;;7.50;4.80;;;5.50;99.90;;;;;;20751446;28;20458;-49
2023/04/20 17:31:32;;;;;;;5.50;3.72;;;5.30;99.90;;;;;;20750571;28;20100;-51
2023/04/20 17:41:34;;;;;;;8.55;4.60;;;5.30;99.90;;;;;;20749705;28;20464;-50
2023/04/20 17:51:36;;;;;;;7.15;5.00;;;5.30;99.90;;;;;;20750165;28;20040;-61
2023/04/20 18:01:38;;;;;;;5.82;4.03;;;5.20;99.90;;;;;;20747966;28;20038;-51
2023/04/20 18:11:40;;;;;;;5.95;3.97;;;5.30;99.90;;;;;;20744771;28;20033;-47
2023/04/20 18:21:42;;;;;;;5.60;3.83;;;5.30;99.90;;;;;;20746842;28;20519;-50
2023/04/20 18:31:45;;;;;;;5.40;4.13;;;5.20;99.90;;;;;;20743427;28;20164;-50
2023/04/20 18:41:46;;;;;;;5.43;3.83;;;5.20;99.90;;;;;;20745602;28;20459;-62
2023/04/20 18:51:48;;;;;;;5.72;4.00;;;5.30;99.90;;;;;;20744379;28;20053;-49
2023/04/20 19:01:51;;;;;;;5.93;4.43;;;5.30;99.90;;;;;;20741787;28;20395;-49
2023/04/20 19:11:52;;;;;;;5.85;4.55;;;5.20;99.90;;;;;;20742445;28;20428;-49
2023/04/20 19:21:54;;;;;;;6.93;4.97;;;5.30;99.90;;;;;;20741490;28;20403;-48
2023/04/20 19:31:55;;;;;;;7.38;4.50;;;5.40;99.90;;;;;;20739453;28;20038;-46
2023/04/20 19:41:57;;;;;;;7.80;3.83;;;5.40;99.90;;;;;;20740722;28;20037;-62
2023/04/20 19:51:59;;;;;;;5.03;3.67;;;5.30;99.90;;;;;;20740191;28;20033;-51
2023/04/20 20:02:01;;;;;;;3.97;2.22;;;5.40;99.90;;;;;;20740033;28;20034;-48
2023/04/20 20:12:05;;;;;;;2.47;1.67;;;5.30;99.90;;;;;;20739689;28;20030;-50
2023/04/20 20:22:07;;;;;;;2.53;1.88;;;5.30;99.90;;;;;;20739171;28;20049;-62
2023/04/20 20:32:09;;;;;;;1.27;1.08;;;5.10;99.90;;;;;;20740344;28;20076;-47
2023/04/20 20:42:11;;;;;;;1.20;0.73;;;5.00;99.90;;;;;;20754731;28;20053;-50
2023/04/20 20:52:13;;;;;;;1.23;0.93;;;5.00;99.90;;;;;;20753533;28;20029;-46
2023/04/20 21:02:15;;;;;;;1.10;0.77;;;5.00;99.90;;;;;;20753160;28;20096;-45
2023/04/20 21:12:17;;;;;;;1.55;1.30;;;5.00;99.90;;;;;;20752160;28;20038;-46
2023/04/20 21:22:21;;;;;;;2.92;1.75;;;5.10;99.90;;;;;;20751316;28;20042;-51
2023/04/20 21:32:22;;;;;;;1.58;1.13;;;5.00;99.90;;;;;;20750503;28;20038;-50
2023/04/20 21:42:27;;;;;;;1.80;1.20;;;5.10;99.90;;;;;;20749677;28;20034;-49
2023/04/20 21:52:29;;;;;;;1.67;1.40;;;5.00;99.90;;;;;;20749017;28;20092;-61
2023/04/20 22:02:31;;;;;;;1.33;1.10;;;5.00;99.90;;;;;;20748172;28;20033;-48
2023/04/20 22:12:38;;;;;;;1.33;0.82;;;4.90;99.90;;;;;;20746319;28;20085;-46
2023/04/20 22:22:40;;;;;;;1.00;0.80;;;4.90;99.90;;;;;;20746685;28;20438;-60
2023/04/20 22:32:42;;;;;;;1.13;0.80;;;5.00;99.90;;;;;;20745874;28;20037;-52
2023/04/20 22:42:44;;;;;;;1.58;1.08;;;5.00;99.90;;;;;;20745657;28;20046;-48
2023/04/20 22:52:48;;;;;;;1.10;0.70;;;5.00;99.90;;;;;;20744640;28;20471;-51
2023/04/20 23:02:50;;;;;;;0.77;0.60;;;4.90;99.90;;;;;;20743586;28;20045;-59
2023/04/20 23:12:53;;;;;;;0.80;0.70;;;4.80;99.90;;;;;;20742298;28;20426;-48
2023/04/20 23:22:55;;;;;;;0.90;0.60;;;4.80;99.90;;;;;;20742128;28;20034;-48
2023/04/20 23:32:57;;;;;;;1.88;1.05;;;4.80;99.90;;;;;;20741722;28;20077;-48
2023/04/20 23:42:58;;;;;;;1.80;0.80;;;4.80;99.90;;;;;;20742233;28;20034;-59
2023/04/20 23:53:00;;;;;;;2.63;1.25;;;5.00;99.90;;;;;;20740436;28;20065;-49
